Time;durP1;ratioP1;P1;durP2;ratioP2;P2;SDS_P1;SDS_P2;PMS_P1;PMS_P2;Temp;Humidity;BMP_temperature;BMP_pressure;BME280_temperature;BME280_humidity;BME280_pressure;Samples;Min_cycle;Max_cycle;Signal;HPM_P1;HPM_P2
2023/11/17 00:00:44;;;;;;;5.85;1.90;;;;;;;4.36;100.00;100216.13;6074807;23;20080;-82
2023/11/17 00:03:29;;;;;;;2.65;2.13;;;5.80;99.90;;;4.34;100.00;100215.31;6053735;23;20283;-84
2023/11/17 00:06:03;;;;;;;3.75;2.00;;;;;;;4.35;100.00;100214.44;6067115;23;20017;-83
2023/11/17 00:08:55;;;;;;;3.92;1.95;;;5.80;99.90;;;4.36;100.00;100218.75;6103335;23;20016;-82
2023/11/17 00:11:25;;;;;;;4.47;2.92;;;;;;;4.39;100.00;100218.69;6106053;23;20017;-84
2023/11/17 00:14:04;;;;;;;5.78;2.60;;;;;;;4.42;100.00;100211.59;6088894;23;20022;-85
2023/11/17 00:17:08;;;;;;;;;;;;;;;;;;;;;
2023/11/17 00:19:34;;;;;;;3.15;2.35;;;5.90;99.90;;;4.41;100.00;100211.66;5966703;23;20415;-82
2023/11/17 00:22:14;;;;;;;6.57;2.83;;;5.90;99.90;;;4.45;100.00;100219.34;6020557;23;20014;-82
2023/11/17 00:24:44;;;;;;;6.47;2.88;;;5.90;99.90;;;4.48;100.00;100223.59;6016886;23;20079;-83
2023/11/17 00:28:18;;;;;;;;;;;;;;;;;;;;;
2023/11/17 00:30:48;;;;;;;5.80;3.08;;;6.00;99.90;;;4.52;100.00;100214.81;6028694;23;20086;-82
2023/11/17 00:33:14;;;;;;;4.88;3.25;;;6.00;99.90;;;4.55;100.00;100221.69;6053470;23;20025;-82
2023/11/17 00:36:12;;;;;;;7.78;3.45;;;6.00;99.90;;;4.58;100.00;100230.28;6049071;23;20037;-83
2023/11/17 00:39:08;;;;;;;6.00;3.78;;;;;;;4.59;100.00;100229.34;6000412;23;20085;-82
2023/11/17 00:41:46;;;;;;;7.60;3.90;;;6.00;99.90;;;4.62;100.00;100231.88;5946307;23;20492;-82
2023/11/17 00:47:53;;;;;;;7.18;3.25;;;6.10;99.90;;;4.59;100.00;100224.13;5962472;24;20354;-83
2023/11/17 00:50:29;;;;;;;;;;;;;;;;;;;;;
2023/11/17 00:53:04;;;;;;;7.28;3.95;;;6.10;99.90;;;4.70;100.00;100236.84;5996745;23;20108;-83
2023/11/17 00:55:36;;;;;;;6.50;3.47;;;6.10;99.90;;;4.69;100.00;100233.41;6114440;23;20010;-84
2023/11/17 00:58:04;;;;;;;6.72;4.00;;;;;;;4.72;100.00;100238.50;6072943;23;20014;-82
2023/11/17 01:00:43;;;;;;;8.13;3.63;;;;;;;4.73;100.00;100245.44;6069031;23;20429;-83
2023/11/17 01:03:20;;;;;;;;;;;;;;;;;;;;;
2023/11/17 01:05:46;;;;;;;6.18;3.55;;;6.20;99.90;;;4.79;100.00;100251.38;6150699;23;20100;-82
2023/11/17 01:08:12;;;;;;;5.35;2.97;;;6.20;99.90;;;4.79;100.00;100243.53;6127891;23;20024;-82
2023/11/17 01:10:53;;;;;;;5.15;3.22;;;6.20;99.90;;;4.80;100.00;100242.66;6123662;23;20400;-83
2023/11/17 01:13:26;;;;;;;12.15;3.20;;;6.20;99.90;;;4.77;100.00;100240.13;6061625;23;21058;-84
2023/11/17 01:15:54;;;;;;;6.03;3.88;;;6.20;99.90;;;4.78;100.00;100241.84;6094164;23;20462;-83
2023/11/17 01:18:34;;;;;;;6.43;3.75;;;6.20;99.90;;;4.77;100.00;100245.34;6014369;23;20025;-84
2023/11/17 01:21:15;;;;;;;7.93;3.88;;;6.20;99.90;;;4.78;100.00;100239.25;6063927;23;20117;-84
2023/11/17 01:23:51;;;;;;;10.25;3.38;;;;;;;4.78;100.00;100240.09;6068785;23;20019;-84
2023/11/17 01:26:17;;;;;;;10.00;3.60;;;6.20;99.90;;;4.75;100.00;100250.59;6078369;23;20021;-83
2023/11/17 01:28:43;;;;;;;8.65;3.75;;;;;;;4.77;100.00;100255.78;6053253;23;20022;-82
2023/11/17 01:31:10;;;;;;;5.75;3.70;;;6.20;99.90;;;4.76;100.00;100248.88;5983508;23;20041;-84
2023/11/17 01:33:46;;;;;;;7.70;3.50;;;;;;;4.77;100.00;100256.63;5916185;23;20015;-82
2023/11/17 01:36:43;;;;;;;5.43;3.38;;;;;;;4.79;100.00;100256.59;6044469;23;20019;-82
2023/11/17 01:42:14;;;;;;;5.82;2.80;;;6.10;99.90;;;4.68;100.00;100255.16;5925612;23;19961;-83
2023/11/17 01:44:58;;;;;;;4.63;2.67;;;6.20;99.90;;;4.66;100.00;100261.31;5954799;23;20082;-84
2023/11/17 01:47:24;;;;;;;13.75;3.30;;;6.10;99.90;;;4.65;100.00;100262.22;5950220;23;20504;-82
2023/11/17 01:50:15;;;;;;;8.95;3.03;;;6.10;99.90;;;4.64;100.00;100256.13;6028414;23;20391;-82
2023/11/17 01:52:55;;;;;;;6.68;2.80;;;;;;;4.63;100.00;100264.88;6003332;23;20479;-82
2023/11/17 01:55:24;;;;;;;6.07;2.72;;;;;;;4.59;100.00;100249.38;6029988;23;20078;-83
2023/11/17 01:58:02;;;;;;;5.80;3.00;;;5.90;99.90;;;4.56;100.00;100258.13;5988668;23;20014;-83
2023/11/17 02:00:29;;;;;;;7.07;3.40;;;;;;;4.57;100.00;100256.38;6026116;23;20026;-84
2023/11/17 02:03:04;;;;;;;5.80;3.40;;;;;;;4.56;100.00;100258.13;5961176;23;20022;-82
2023/11/17 02:05:43;;;;;;;9.70;3.40;;;6.00;99.90;;;4.54;100.00;100259.94;6003342;23;20349;-83
2023/11/17 02:08:56;;;;;;;10.60;3.53;;;5.90;99.90;;;4.55;100.00;100258.19;5997407;23;20057;-82
2023/11/17 02:11:37;;;;;;;8.00;3.28;;;6.00;99.90;;;4.50;100.00;100253.94;5995033;23;20127;-83
2023/11/17 02:14:48;;;;;;;6.68;3.05;;;6.00;99.90;;;4.52;100.00;100262.59;6054528;23;20515;-81
2023/11/17 02:17:16;;;;;;;5.82;3.53;;;;;;;4.54;100.00;100265.16;6000697;23;20023;-82
2023/11/17 02:19:53;;;;;;;5.93;3.35;;;6.00;99.90;;;4.56;100.00;100265.97;6119787;23;20670;-83
2023/11/17 02:22:59;;;;;;;;;;;;;;;;;;;;;
2023/11/17 02:26:15;;;;;;;5.45;3.15;;;6.00;99.90;;;4.58;100.00;100277.19;6072208;23;20092;-81
2023/11/17 02:29:27;;;;;;;12.63;3.22;;;;;;;4.60;100.00;100282.34;6089803;23;20515;-82
2023/11/17 02:31:58;;;;;;;4.85;2.75;;;6.00;99.90;;;4.61;100.00;100284.06;6089356;23;20025;-82
2023/11/17 02:34:38;;;;;;;6.53;2.38;;;6.00;99.90;;;4.64;100.00;100290.03;6001115;23;20015;-82
2023/11/17 02:37:25;;;;;;;3.95;1.98;;;6.10;99.90;;;4.68;100.00;100294.28;6098109;23;20048;-81
2023/11/17 02:39:56;;;;;;;6.28;2.50;;;6.10;99.90;;;4.66;100.00;100283.03;6090137;23;20141;-82
2023/11/17 02:42:37;;;;;;;7.38;2.35;;;;;;;4.69;100.00;100288.16;6073008;23;20005;-82
2023/11/17 02:45:26;;;;;;;4.55;1.80;;;6.10;99.90;;;4.71;100.00;100294.19;6073278;23;20565;-83
2023/11/17 02:47:56;;;;;;;8.00;2.30;;;6.10;99.90;;;4.73;100.00;100289.78;6103302;23;20024;-81
2023/11/17 02:51:03;;;;;;;8.43;2.30;;;6.10;99.90;;;4.76;100.00;100285.38;6180602;23;20044;-83
2023/11/17 02:53:49;;;;;;;;;;;6.20;99.90;;;4.76;100.00;100290.59;6031822;23;20030;-84
2023/11/17 02:56:24;;;;;;;7.20;2.22;;;6.20;99.90;;;4.77;100.00;100298.34;6065238;23;20439;-82
2023/11/17 02:59:20;;;;;;;;;;;;;;;;;;;;;
2023/11/17 03:01:47;;;;;;;3.63;2.13;;;;;;;4.79;100.00;100293.09;5964402;23;20469;-82
2023/11/17 03:04:22;;;;;;;7.47;2.70;;;6.20;99.90;;;4.81;100.00;100291.31;5982224;23;20252;-82
2023/11/17 03:07:08;;;;;;;5.03;2.30;;;6.30;99.90;;;4.84;100.00;100297.31;5939265;23;20018;-82
2023/11/17 03:09:43;;;;;;;7.10;2.85;;;;;;;4.87;100.00;100302.41;5961849;23;20031;-82
2023/11/17 03:12:25;;;;;;;7.77;3.20;;;6.30;99.90;;;4.86;100.00;100312.88;5986247;23;20047;-83
2023/11/17 03:14:53;;;;;;;8.02;3.00;;;6.30;99.90;;;4.85;100.00;100309.44;5975712;23;20019;-83
2023/11/17 03:17:49;;;;;;;11.52;3.75;;;;;;;4.90;100.00;100312.78;5963801;23;20019;-83
2023/11/17 03:20:23;;;;;;;12.98;3.45;;;;;;;4.89;100.00;100318.03;5981078;23;20019;-80
2023/11/17 03:23:08;;;;;;;8.63;3.45;;;;;;;4.92;100.00;100317.94;6036681;23;20033;-83
2023/11/17 03:25:43;;;;;;;9.23;4.15;;;6.30;99.90;;;4.91;100.00;100319.69;5991800;23;20034;-81
2023/11/17 03:28:22;;;;;;;9.85;3.78;;;;;;;4.93;100.00;100320.50;5977260;23;20023;-83
2023/11/17 03:30:55;;;;;;;10.70;4.03;;;6.30;99.90;;;4.96;100.00;100316.09;6065824;23;20059;-82
2023/11/17 03:33:30;;;;;;;7.60;4.28;;;6.40;99.90;;;4.98;100.00;100329.94;6091605;23;20555;-82
2023/11/17 03:35:56;;;;;;;8.23;3.95;;;6.40;99.90;;;4.98;100.00;100327.34;6110995;23;20678;-81
2023/11/17 03:38:46;;;;;;;12.25;4.32;;;6.40;99.90;;;4.95;100.00;100323.06;6130091;23;20005;-82
2023/11/17 03:41:18;;;;;;;11.73;4.32;;;;;;;4.99;100.00;100337.75;6076186;23;20022;-82
2023/11/17 03:44:07;;;;;;;9.75;4.00;;;6.40;99.90;;;4.98;100.00;100328.19;6066565;23;20485;-81
2023/11/17 03:46:33;;;;;;;13.27;4.30;;;6.40;99.90;;;4.99;100.00;100337.75;5926005;23;20019;-81
2023/11/17 03:49:02;;;;;;;11.50;4.30;;;6.40;99.90;;;5.00;100.00;100334.22;5946978;23;20367;-82
2023/11/17 03:51:34;;;;;;;10.48;4.00;;;6.40;99.90;;;4.97;100.00;100342.16;5990115;23;20023;-82
2023/11/17 03:54:05;;;;;;;11.73;4.57;;;;;;;4.99;100.00;100340.34;5956215;23;20651;-83
2023/11/17 03:56:56;;;;;;;10.02;4.18;;;;;;;4.99;100.00;100342.06;5957164;23;20028;-81
2023/11/17 03:59:24;;;;;;;11.77;4.05;;;6.40;99.90;;;5.00;100.00;100347.25;5931213;23;20023;-82
2023/11/17 04:02:46;;;;;;;11.02;3.90;;;6.40;99.90;;;4.94;100.00;100347.44;5951880;23;20038;-83
2023/11/17 04:05:15;;;;;;;6.90;3.45;;;;;;;4.95;100.00;100349.16;5923846;23;20094;-82
2023/11/17 04:07:42;;;;;;;13.18;3.25;;;6.40;99.90;;;5.00;100.00;100354.25;5935673;23;20016;-80
2023/11/17 04:10:18;;;;;;;7.13;3.38;;;;;;;5.00;100.00;100349.88;5959540;23;20102;-81
2023/11/17 04:12:54;;;;;;;6.50;2.97;;;6.40;99.90;;;5.00;100.00;100356.84;5935331;23;20027;-81
2023/11/17 04:15:23;;;;;;;8.50;3.08;;;;;;;4.93;100.00;100358.78;5988121;23;20492;-82
2023/11/17 04:17:49;;;;;;;7.93;3.00;;;;;;;4.92;100.00;100362.28;5954302;23;20023;-81
2023/11/17 04:20:24;;;;;;;8.10;2.95;;;6.40;99.90;;;4.91;100.00;100365.81;5965619;23;20359;-80
2023/11/17 04:22:52;;;;;;;10.13;2.70;;;;;;;4.85;100.00;100365.97;5972244;23;20489;-83
2023/11/17 04:25:44;;;;;;;6.22;2.60;;;;;;;4.77;100.00;100370.56;6161861;23;20017;-82
2023/11/17 04:28:13;;;;;;;6.53;2.60;;;;;;;4.71;100.00;100372.44;6131316;23;20016;-82
2023/11/17 04:30:50;;;;;;;9.20;2.67;;;6.20;99.90;;;4.73;100.00;100372.41;6147960;23;20103;-81
2023/11/17 04:33:17;;;;;;;5.88;2.80;;;6.20;99.90;;;4.72;100.00;100373.28;6195928;23;20436;-82
2023/11/17 04:36:09;;;;;;;4.28;2.50;;;6.20;99.90;;;4.74;100.00;100374.09;6071844;23;20080;-81
2023/11/17 04:38:34;;;;;;;6.78;2.40;;;6.20;99.90;;;4.73;100.00;100373.25;6115583;23;20453;-81
2023/11/17 04:41:00;;;;;;;4.45;2.33;;;6.10;99.90;;;4.69;100.00;100378.59;6151213;23;20023;-82
2023/11/17 04:43:35;;;;;;;4.82;2.33;;;6.10;99.90;;;4.68;100.00;100387.31;6140269;23;20102;-81
2023/11/17 04:46:06;;;;;;;5.60;2.20;;;6.10;99.90;;;4.64;100.00;100386.53;6137112;23;20072;-82
2023/11/17 04:48:41;;;;;;;4.68;2.00;;;6.10;99.90;;;4.64;100.00;100399.56;6084110;23;20079;-83
2023/11/17 04:51:07;;;;;;;5.95;1.90;;;6.10;99.90;;;4.62;100.00;100401.41;6102011;23;20020;-82
2023/11/17 04:53:44;;;;;;;4.03;1.80;;;6.10;99.90;;;4.66;100.00;100397.78;6102072;23;20055;-82
2023/11/17 04:56:13;;;;;;;3.70;1.63;;;6.10;99.90;;;4.62;100.00;100393.56;6129235;23;20021;-82
2023/11/17 04:58:52;;;;;;;6.65;1.83;;;6.10;99.90;;;4.65;100.00;100406.50;6104514;23;20096;-82
2023/11/17 05:01:26;;;;;;;7.70;1.50;;;6.10;99.90;;;4.70;100.00;100404.63;6126934;23;20032;-81
2023/11/17 05:03:55;;;;;;;6.97;1.60;;;;;;;4.68;100.00;100401.19;6120876;23;20024;-81
2023/11/17 05:06:36;;;;;;;3.60;1.60;;;;;;;4.70;100.00;100407.22;6135658;23;20070;-80
2023/11/17 05:09:12;;;;;;;3.55;1.70;;;6.10;99.90;;;4.72;100.00;100400.22;6131351;23;20013;-83
2023/11/17 05:11:41;;;;;;;5.88;1.45;;;6.10;99.90;;;4.69;100.00;100408.16;6165753;23;20022;-81
2023/11/17 05:14:16;;;;;;;5.78;1.50;;;6.10;99.90;;;4.63;100.00;100407.47;6125879;23;20096;-81
2023/11/17 05:16:45;;;;;;;2.97;1.20;;;6.10;99.90;;;4.61;100.00;100407.50;6149735;23;20020;-82
2023/11/17 05:19:22;;;;;;;4.82;1.17;;;6.10;99.90;;;4.62;100.00;100418.78;6117281;23;20481;-82
2023/11/17 05:21:48;;;;;;;3.67;1.10;;;6.10;99.90;;;4.54;100.00;100418.16;6109197;23;20028;-81
2023/11/17 05:24:24;;;;;;;4.20;1.02;;;;;;;4.55;100.00;100418.09;6129735;23;20052;-81
2023/11/17 05:26:52;;;;;;;4.60;0.90;;;6.00;99.90;;;4.51;100.00;100414.72;6125309;23;20016;-81
2023/11/17 05:29:44;;;;;;;3.53;0.82;;;6.10;99.90;;;4.58;100.00;100418.03;6197067;23;20019;-82
2023/11/17 05:32:10;;;;;;;3.38;1.10;;;6.00;99.90;;;4.56;100.00;100417.19;6027692;23;20018;-83
2023/11/17 05:34:36;;;;;;;3.80;0.95;;;;;;;4.56;100.00;100424.16;6019685;23;20062;-82
2023/11/17 05:37:25;;;;;;;2.40;0.80;;;;;;;4.60;100.00;100426.66;6004410;23;20018;-81
2023/11/17 05:39:51;;;;;;;2.10;0.70;;;;;;;4.57;100.00;100421.50;6001832;23;20042;-81
2023/11/17 05:42:18;;;;;;;3.78;1.13;;;6.10;99.90;;;4.62;100.00;100427.47;5961066;23;20016;-81
2023/11/17 05:44:55;;;;;;;3.22;0.77;;;;;;;4.64;100.00;100423.03;6023862;23;20027;-82
2023/11/17 05:47:21;;;;;;;2.20;0.90;;;;;;;4.66;100.00;100436.91;5986511;23;20415;-82
2023/11/17 05:49:47;;;;;;;3.83;0.80;;;6.10;99.90;;;4.66;100.00;100436.91;5973087;23;20019;-81
2023/11/17 05:52:24;;;;;;;2.33;0.95;;;6.10;99.90;;;4.67;100.00;100436.03;5952716;23;20060;-81
2023/11/17 05:54:53;;;;;;;9.38;1.17;;;6.20;99.90;;;4.70;100.00;100437.69;5939345;23;20081;-83
2023/11/17 05:57:26;;;;;;;1.92;1.10;;;;;;;4.71;100.00;100445.47;5984858;23;20678;-81
2023/11/17 05:59:57;;;;;;;3.17;1.13;;;6.10;99.90;;;4.69;100.00;100436.84;6024607;23;20015;-83
2023/11/17 06:02:46;;;;;;;3.20;1.27;;;6.20;99.90;;;4.77;100.00;100451.41;5985963;23;20015;-81
2023/11/17 06:05:15;;;;;;;8.40;1.50;;;;;;;4.79;100.00;100447.00;5957704;23;20425;-82
2023/11/17 06:07:51;;;;;;;6.45;1.05;;;6.20;99.90;;;4.80;100.00;100446.13;6033007;23;20030;-82
2023/11/17 06:10:17;;;;;;;;;;;6.20;99.90;;;4.78;100.00;100451.38;6042125;23;20029;-81
2023/11/17 06:13:14;;;;;;;1.92;0.75;;;;;;;4.76;100.00;100447.97;6027037;23;19909;-80
2023/11/17 06:16:07;;;;;;;3.80;0.93;;;6.20;99.90;;;4.78;100.00;100446.16;5945325;23;20373;-82
2023/11/17 06:18:36;;;;;;;4.63;0.77;;;6.20;99.90;;;4.77;100.00;100452.25;5943928;23;20026;-83
2023/11/17 06:21:10;;;;;;;6.00;0.70;;;;;;;4.83;100.00;100454.72;5977919;23;20019;-83
2023/11/17 06:23:35;;;;;;;4.75;0.90;;;6.30;99.90;;;4.87;100.00;100450.28;5940881;23;20024;-81
2023/11/17 06:26:04;;;;;;;2.15;0.60;;;6.30;99.90;;;4.92;100.00;100461.44;5963782;23;20755;-82
2023/11/17 06:28:39;;;;;;;4.63;0.50;;;6.30;99.90;;;4.92;100.00;100466.66;5923969;23;20023;-82
2023/11/17 06:31:06;;;;;;;3.10;0.40;;;6.30;99.90;;;4.83;100.00;100461.69;5975944;23;20016;-81
2023/11/17 06:33:33;;;;;;;1.20;0.30;;;6.30;99.90;;;4.78;100.00;100456.59;5993946;23;20484;-83
2023/11/17 06:36:13;;;;;;;0.35;0.28;;;6.30;99.90;;;4.72;100.00;100472.41;5979974;23;20045;-83
2023/11/17 06:39:14;;;;;;;2.05;0.40;;;6.30;99.90;;;4.74;100.00;100473.22;5976059;23;20094;-84
2023/11/17 06:41:44;;;;;;;1.27;0.33;;;;;;;4.65;100.00;100476.94;5967867;23;20034;-82
2023/11/17 06:44:40;;;;;;;2.85;0.50;;;6.30;99.90;;;4.65;100.00;100474.31;6087977;23;20076;-82
2023/11/17 06:47:06;;;;;;;1.73;0.47;;;6.20;99.90;;;4.58;100.00;100479.72;6100028;23;20018;-81
2023/11/17 06:49:32;;;;;;;5.10;0.90;;;;;;;4.56;100.00;100485.00;6098990;23;20013;-81
2023/11/17 06:52:10;;;;;;;2.65;0.77;;;6.20;99.90;;;4.59;100.00;100491.88;6079311;23;20014;-82
2023/11/17 06:54:36;;;;;;;1.27;1.08;;;6.20;99.90;;;4.55;100.00;100480.66;6059501;23;20056;-80
2023/11/17 06:57:25;;;;;;;4.30;1.40;;;6.20;99.90;;;4.56;100.00;100498.03;6091451;23;20542;-82
2023/11/17 06:59:54;;;;;;;6.32;1.92;;;;;;;4.61;100.00;100496.16;6016289;23;20689;-81
2023/11/17 07:02:20;;;;;;;6.38;2.20;;;6.20;99.90;;;4.69;100.00;100499.44;6079110;23;20014;-82
2023/11/17 07:05:12;;;;;;;3.90;2.05;;;6.20;99.90;;;4.64;100.00;100497.81;6087736;23;20123;-81
2023/11/17 07:07:39;;;;;;;8.70;2.80;;;6.30;99.90;;;4.77;100.00;100508.78;6055851;23;20018;-82
2023/11/17 07:10:15;;;;;;;6.43;2.03;;;6.30;99.90;;;4.78;100.00;100508.78;6053618;23;20014;-81
2023/11/17 07:12:44;;;;;;;4.03;1.73;;;6.40;99.90;;;4.86;100.00;100518.97;6025754;23;20014;-81
2023/11/17 07:15:22;;;;;;;3.33;2.10;;;6.40;99.90;;;4.84;100.00;100529.47;6062591;23;20043;-82
2023/11/17 07:17:48;;;;;;;5.38;2.58;;;6.40;99.90;;;4.91;100.00;100530.19;6076298;23;20013;-80
2023/11/17 07:20:22;;;;;;;6.15;3.00;;;6.50;99.90;;;4.94;100.00;100533.53;6036927;23;20073;-82
2023/11/17 07:22:50;;;;;;;3.95;1.88;;;6.50;99.90;;;4.97;100.00;100535.22;6027280;23;21034;-81
2023/11/17 07:25:17;;;;;;;4.88;1.77;;;6.50;99.90;;;5.03;100.00;100534.19;6034875;23;20029;-81
2023/11/17 07:27:52;;;;;;;2.72;1.40;;;;;;;5.04;100.00;100548.97;6051358;23;20021;-81
2023/11/17 07:30:19;;;;;;;4.63;1.50;;;6.60;99.90;;;5.11;100.00;100547.91;6131522;23;20080;-82
2023/11/17 07:33:28;;;;;;;3.35;1.55;;;6.60;99.90;;;5.08;100.00;100559.28;6068433;23;20069;-81
2023/11/17 07:35:35;;;;;;;5.47;1.77;;;;;;;5.14;100.00;100559.13;6092247;23;20013;-81
2023/11/17 07:38:05;;;;;;;4.00;1.73;;;;;;;5.14;100.00;100566.97;6046040;23;20013;-81
2023/11/17 07:40:39;;;;;;;3.50;1.50;;;;;;;5.19;100.00;100572.06;6112334;23;20124;-83
2023/11/17 07:43:05;;;;;;;6.15;1.58;;;6.70;99.90;;;5.19;100.00;100585.09;6066745;23;20034;-81
2023/11/17 07:45:31;;;;;;;3.72;1.60;;;6.70;99.90;;;5.18;100.00;100587.75;6022953;23;20056;-82
2023/11/17 07:47:57;;;;;;;3.70;1.50;;;6.80;99.90;;;5.24;100.00;100598.03;6061055;23;20022;-82
2023/11/17 07:50:46;;;;;;;5.90;1.88;;;6.80;99.90;;;5.21;100.00;100603.34;6083365;23;20048;-82
2023/11/17 07:53:13;;;;;;;4.43;1.40;;;;;;;5.18;100.00;100611.25;6013328;23;21571;-84
2023/11/17 07:55:41;;;;;;;4.70;2.08;;;6.70;99.90;;;5.14;100.00;100610.47;5951856;23;20022;-81
2023/11/17 07:58:13;;;;;;;4.90;1.70;;;6.70;99.90;;;5.11;100.00;100614.00;5981686;23;20015;-82
2023/11/17 08:00:44;;;;;;;4.28;1.83;;;6.70;99.90;;;5.09;100.00;100613.19;5993213;23;20058;-83
2023/11/17 08:03:29;;;;;;;;;;;;;;;;;;;;;
2023/11/17 08:06:05;;;;;;;2.67;1.58;;;;;;;5.07;100.00;100620.19;6066110;23;20394;-82
2023/11/17 08:08:40;;;;;;;3.75;1.55;;;;;;;5.10;100.00;100635.78;6141332;23;20084;-84
2023/11/17 08:11:16;;;;;;;4.05;1.40;;;6.70;99.90;;;5.03;100.00;100633.38;6093366;23;20080;-81
2023/11/17 08:13:44;;;;;;;;;;;6.70;99.90;;;5.05;100.00;100648.09;6088442;23;20486;-82
2023/11/17 08:16:12;;;;;;;6.18;1.52;;;6.60;99.90;;;5.07;100.00;100646.28;6013777;23;19980;-82
2023/11/17 08:18:46;;;;;;;5.63;1.75;;;6.70;99.90;;;5.11;100.00;100647.94;6035390;23;20775;-81
2023/11/17 08:21:15;;;;;;;2.78;1.67;;;6.70;99.90;;;5.10;100.00;100656.69;5981304;23;20084;-82
2023/11/17 08:23:41;;;;;;;4.17;2.00;;;6.70;99.90;;;5.13;100.00;100661.81;5986176;23;1189082;-83
2023/11/17 08:26:14;;;;;;;5.07;2.03;;;6.70;99.90;;;5.16;100.00;100660.00;6082824;23;20248;-82
2023/11/17 08:28:43;;;;;;;5.70;1.52;;;;;;;5.16;100.00;100673.91;6042615;23;20094;-82
2023/11/17 08:31:35;;;;;;;3.08;1.48;;;6.70;99.90;;;5.13;100.00;100669.63;6070165;23;20013;-83
2023/11/17 08:34:03;;;;;;;5.97;2.15;;;6.70;99.90;;;5.15;100.00;100680.03;6010539;23;20213;-84
2023/11/17 08:36:29;;;;;;;6.43;1.52;;;6.70;99.90;;;5.17;100.00;100686.09;6016013;23;20053;-82
2023/11/17 08:39:08;;;;;;;3.42;1.50;;;6.70;99.90;;;5.06;100.00;100691.56;6059138;23;20085;-82
2023/11/17 08:42:00;;;;;;;3.00;1.70;;;6.70;99.90;;;5.09;100.00;100696.69;6104383;23;20017;-82
2023/11/17 08:44:44;;;;;;;4.05;1.55;;;6.70;99.90;;;5.11;100.00;100694.91;6043749;23;20029;-81
2023/11/17 08:47:19;;;;;;;2.63;1.45;;;6.70;99.90;;;5.04;100.00;100703.78;6091981;23;20013;-82
2023/11/17 08:49:46;;;;;;;3.88;1.75;;;;;;;5.04;100.00;100701.19;6043884;23;20017;-83
2023/11/17 08:52:13;;;;;;;5.65;1.73;;;6.60;99.90;;;5.06;100.00;100709.00;6085677;23;20052;-82
2023/11/17 08:54:46;;;;;;;3.88;1.90;;;;;;;5.07;100.00;100713.31;6077208;23;20362;-84
2023/11/17 08:57:12;;;;;;;3.15;1.90;;;6.60;99.90;;;4.97;100.00;100727.44;6074137;23;21825;-82
2023/11/17 08:59:38;;;;;;;5.88;2.20;;;6.60;99.90;;;4.99;100.00;100723.94;6086497;23;20014;-83
2023/11/17 09:04:44;;;;;;;6.85;2.83;;;;;;;5.11;100.00;100731.47;6141405;23;20036;-82
2023/11/17 09:07:24;;;;;;;4.70;2.20;;;6.70;99.90;;;5.18;100.00;100733.94;6095905;23;20450;-81
2023/11/17 09:10:02;;;;;;;5.10;1.98;;;6.70;99.90;;;5.18;100.00;100747.81;6093336;23;20027;-83
2023/11/17 09:12:41;;;;;;;8.60;2.60;;;6.70;99.90;;;5.24;100.00;100758.13;6054267;23;20748;-82
2023/11/17 09:15:09;;;;;;;3.22;2.17;;;6.80;99.90;;;5.28;100.00;100764.13;6125234;23;20037;-82
2023/11/17 09:17:47;;;;;;;3.28;1.88;;;;;;;5.22;100.00;100769.50;6029731;23;20019;-82
2023/11/17 09:20:21;;;;;;;5.45;2.28;;;;;;;5.25;100.00;100769.44;6043455;23;20352;-83
2023/11/17 09:22:49;;;;;;;2.80;1.83;;;6.80;99.90;;;5.27;100.00;100768.50;6083357;23;20036;-82
2023/11/17 09:25:17;;;;;;;3.28;2.00;;;6.80;99.90;;;5.31;100.00;100774.50;6055115;23;20021;-82
2023/11/17 09:28:11;;;;;;;2.53;2.08;;;6.90;99.90;;;5.37;100.00;100781.34;6066928;23;20667;-84
2023/11/17 09:30:45;;;;;;;2.85;1.90;;;6.90;99.90;;;5.47;100.00;100785.44;5889645;23;20051;-82
2023/11/17 09:33:13;;;;;;;3.23;1.57;;;6.90;99.90;;;5.46;100.00;100789.78;5897461;23;20041;-83
2023/11/17 09:38:33;;;;;;;1.35;1.25;;;;;;;5.51;100.00;100793.16;5914034;23;20023;-83
2023/11/17 09:41:03;;;;;;;2.47;1.70;;;7.10;99.90;;;5.66;100.00;100793.66;5900508;23;20016;-84
2023/11/17 09:47:08;;;;;;;1.80;1.10;;;7.30;99.90;;;6.02;100.00;100809.34;5858910;24;20085;-82
2023/11/17 09:49:44;;;;;;;1.60;1.40;;;7.40;99.90;;;6.09;100.00;100801.31;5849053;24;20025;-82
2023/11/17 09:52:11;;;;;;;2.60;1.40;;;7.50;99.90;;;6.06;100.00;100814.44;5847907;24;20029;-82
2023/11/17 09:54:47;;;;;;;2.67;1.23;;;7.50;99.90;;;5.94;100.00;100815.63;5853482;24;20092;-82
2023/11/17 09:57:27;;;;;;;1.85;1.52;;;;;;;5.93;100.00;100816.47;5863722;24;20021;-81
2023/11/17 09:59:56;;;;;;;3.58;1.70;;;7.40;99.90;;;5.91;100.00;100813.03;5873804;24;20017;-81
2023/11/17 10:03:00;;;;;;;2.83;1.45;;;7.40;99.90;;;5.90;100.00;100818.34;5892030;24;20300;-83
2023/11/17 10:05:32;;;;;;;2.50;2.05;;;7.40;99.90;;;6.03;100.00;100826.75;5876196;24;20086;-83
2023/11/17 10:08:08;;;;;;;2.13;1.40;;;;;;;6.12;100.00;100836.97;5880005;24;20415;-83
2023/11/17 10:10:50;;;;;;;1.50;1.20;;;7.50;99.90;;;6.13;100.00;100833.44;5902503;23;20020;-82
2023/11/17 10:13:32;;;;;;;2.45;1.23;;;8.30;99.90;;;6.09;100.00;100827.44;5911259;23;20020;-81
2023/11/17 10:16:07;;;;;;;1.50;1.02;;;7.50;99.90;;;6.05;100.00;100840.66;5921560;23;20012;-82
2023/11/17 10:18:37;;;;;;;3.07;1.33;;;7.50;99.90;;;6.07;100.00;100844.94;5915666;23;20012;-82
2023/11/17 10:21:19;;;;;;;2.22;0.88;;;;;;;6.05;100.00;100843.25;5927097;23;20290;-83
2023/11/17 10:23:53;;;;;;;5.00;1.20;;;;;;;6.02;100.00;100852.00;5992661;23;20136;-83
2023/11/17 10:26:22;;;;;;;1.33;1.10;;;;;;;5.93;100.00;100858.28;6091500;23;20413;-83
2023/11/17 10:29:14;;;;;;;7.78;1.33;;;7.40;99.90;;;5.80;100.00;100850.81;6097069;23;20048;-82
2023/11/17 10:31:47;;;;;;;2.10;1.33;;;;;;;5.78;100.00;100850.84;5938829;23;20458;-83
2023/11/17 10:34:16;;;;;;;1.38;1.00;;;7.40;99.90;;;5.76;100.00;100850.03;5915830;23;20162;-83
2023/11/17 10:37:14;;;;;;;;;;;;;;;;;;;;;
2023/11/17 10:39:52;;;;;;;2.15;1.10;;;;;;;5.71;100.00;100863.19;5952602;23;20540;-84
2023/11/17 10:42:22;;;;;;;1.85;1.15;;;7.30;99.90;;;5.80;100.00;100864.72;5982380;23;20047;-85
2023/11/17 10:44:54;;;;;;;3.53;1.40;;;;;;;6.05;100.00;100866.78;5907187;23;20024;-82
2023/11/17 10:47:23;;;;;;;3.17;1.20;;;;;;;6.17;100.00;100861.22;5964797;23;20019;-84
2023/11/17 10:50:30;;;;;;;2.47;1.60;;;;;;;6.25;100.00;100867.09;5953386;23;20351;-83
2023/11/17 10:52:59;;;;;;;2.60;1.33;;;7.60;99.90;;;6.18;100.00;100868.19;5922319;24;20136;-82
2023/11/17 10:55:37;;;;;;;5.20;1.40;;;;;;;6.08;100.00;100864.06;5884103;24;20254;-83
2023/11/17 10:58:19;;;;;;;1.50;1.13;;;;;;;6.03;100.00;100868.56;5929753;24;20027;-87
2023/11/17 11:01:44;;;;;;;1.88;1.25;;;7.50;99.90;;;5.86;100.00;100866.34;5944559;23;20024;-87
2023/11/17 11:04:29;;;;;;;2.10;1.35;;;;;;;5.84;100.00;100870.75;5870056;24;20032;-88
2023/11/17 11:07:07;;;;;;;5.80;1.70;;;7.40;99.90;;;5.83;100.00;100877.75;5868564;24;20025;-87
2023/11/17 11:14:17;;;;;;;2.13;1.20;;;7.20;99.90;;;5.41;100.00;100890.91;5814786;24;20651;-86
2023/11/17 11:16:55;;;;;;;3.97;1.75;;;;;;;5.41;100.00;100892.66;5782903;24;20014;-87
2023/11/17 11:20:06;;;;;;;3.22;1.58;;;;;;;5.44;100.00;100889.97;5765890;24;20046;-87
2023/11/17 11:23:34;;;;;;;2.22;1.70;;;7.10;99.90;;;5.46;100.00;100893.41;5830048;24;20035;-87
2023/11/17 11:26:36;;;;;;;2.40;1.67;;;7.10;99.90;;;5.42;100.00;100895.25;5759946;24;20018;-87
2023/11/17 11:29:38;;;;;;;;;;;;;;;;;;;;;
2023/11/17 11:32:26;;;;;;;2.78;1.85;;;;;;;5.50;100.00;100901.13;5735158;24;20097;-87
2023/11/17 11:34:52;;;;;;;3.50;2.10;;;7.10;99.90;;;5.57;100.00;100899.22;5735536;24;20164;-87
2023/11/17 11:38:29;;;;;;;;;;;;;;;;;;;;;
2023/11/17 11:41:01;;;;;;;3.63;1.63;;;7.10;99.90;;;5.62;100.00;100914.84;5820689;24;20751;-86
2023/11/17 11:47:41;;;;;;;1.77;1.10;;;7.10;99.90;;;5.63;100.00;100922.59;6121713;23;20024;-86
2023/11/17 11:51:08;;;;;;;3.03;1.30;;;7.10;99.90;;;5.58;100.00;100934.94;6072063;23;20018;-87
2023/11/17 11:54:15;;;;;;;4.80;1.80;;;7.10;99.90;;;5.60;100.00;100921.84;6049536;23;20263;-86
2023/11/17 11:56:44;;;;;;;4.18;1.67;;;;;;;5.65;100.00;100936.50;5941242;23;20016;-87
2023/11/17 12:00:26;;;;;;;7.35;1.85;;;7.20;99.90;;;5.57;100.00;100933.19;5960846;23;20550;-86
2023/11/17 12:03:35;;;;;;;3.28;1.92;;;7.20;99.90;;;5.67;100.00;100936.47;5870947;24;20020;-86